Time;durP1;ratioP1;P1;durP2;ratioP2;P2;SDS_P1;SDS_P2;PMS_P1;PMS_P2;Temp;Humidity;BMP_temperature;BMP_pressure;BME280_temperature;BME280_humidity;BME280_pressure;Samples;Min_cycle;Max_cycle;Signal;HPM_P1;HPM_P2
2023/04/13 00:00:53;;;;;;;1.27;0.68;;;8.00;99.90;;;;;;4162789;28;20065;-61
2023/04/13 00:02:54;;;;;;;2.08;0.70;;;8.10;99.90;;;;;;4173049;28;20157;-61
2023/04/13 00:04:56;;;;;;;0.80;0.60;;;8.00;99.90;;;;;;4166446;28;20110;-61
2023/04/13 00:07:03;;;;;;;2.92;0.90;;;7.90;99.90;;;;;;4166220;28;20044;-61
2023/04/13 00:09:04;;;;;;;3.28;0.77;;;7.90;99.90;;;;;;4167417;28;20488;-61
2023/04/13 00:11:06;;;;;;;2.42;0.80;;;7.90;99.90;;;;;;4169015;28;20029;-61
2023/04/13 00:13:09;;;;;;;3.43;0.77;;;7.90;99.90;;;;;;4166372;28;20450;-61
2023/04/13 00:15:10;;;;;;;4.78;0.80;;;7.90;99.90;;;;;;4169235;28;20632;-62
2023/04/13 00:17:10;;;;;;;3.03;1.05;;;7.90;99.90;;;;;;4166281;28;20041;-61
2023/04/13 00:19:11;;;;;;;4.03;0.73;;;7.90;99.90;;;;;;4170348;28;20042;-61
2023/04/13 00:21:15;;;;;;;1.83;0.60;;;7.90;99.90;;;;;;4169953;28;20432;-61
2023/04/13 00:23:16;;;;;;;2.15;0.90;;;7.90;99.90;;;;;;4168980;28;20035;-61
2023/04/13 00:25:17;;;;;;;2.22;0.60;;;7.90;99.90;;;;;;4172982;28;20048;-60
2023/04/13 00:27:18;;;;;;;3.53;1.00;;;7.90;99.90;;;;;;4163480;28;20396;-60
2023/04/13 00:29:18;;;;;;;2.63;0.70;;;7.90;99.90;;;;;;4167063;28;20068;-60
2023/04/13 00:31:19;;;;;;;2.08;0.98;;;7.80;99.90;;;;;;4169472;28;20042;-60
2023/04/13 00:33:20;;;;;;;1.65;0.93;;;7.80;99.90;;;;;;4174889;28;20040;-61
2023/04/13 00:35:25;;;;;;;2.22;0.80;;;7.80;99.90;;;;;;4162668;28;20041;-60
2023/04/13 00:37:29;;;;;;;3.20;0.80;;;7.80;99.90;;;;;;4169453;28;20036;-61
2023/04/13 00:39:30;;;;;;;2.33;0.70;;;7.80;99.90;;;;;;4169941;28;20571;-60
2023/04/13 00:41:31;;;;;;;6.03;1.15;;;7.80;99.90;;;;;;4167746;28;20045;-60
2023/04/13 00:43:31;;;;;;;3.47;0.80;;;7.80;99.90;;;;;;4165861;28;20033;-60
2023/04/13 00:45:38;;;;;;;3.28;1.17;;;7.80;99.90;;;;;;4166183;28;20046;-61
2023/04/13 00:47:40;;;;;;;1.92;0.70;;;7.80;99.90;;;;;;4165599;28;20036;-61
2023/04/13 00:49:41;;;;;;;2.58;0.85;;;7.80;99.90;;;;;;4171039;28;20487;-61
2023/04/13 00:51:43;;;;;;;3.80;0.90;;;7.80;99.90;;;;;;4167330;28;20041;-60
2023/04/13 00:53:44;;;;;;;3.28;0.95;;;7.80;99.90;;;;;;4172360;28;20037;-61
2023/04/13 00:55:47;;;;;;;4.78;0.85;;;7.80;99.90;;;;;;4168418;28;20037;-61
2023/04/13 00:57:51;;;;;;;;;;;7.80;99.90;;;;;;4173063;28;20045;-61
2023/04/13 00:59:51;;;;;;;2.88;0.75;;;7.90;99.90;;;;;;4170036;28;20024;-61
2023/04/13 01:01:56;;;;;;;5.38;0.73;;;7.90;99.90;;;;;;4169409;28;20049;-62
2023/04/13 01:03:56;;;;;;;4.28;0.80;;;7.90;99.90;;;;;;4166817;28;20041;-60
2023/04/13 01:06:23;;;;;;;2.47;0.77;;;7.90;99.90;;;;;;4167874;28;20478;-61
2023/04/13 01:08:30;;;;;;;2.08;0.70;;;7.90;99.90;;;;;;4166637;28;20154;-60
2023/04/13 01:10:56;;;;;;;3.65;0.80;;;7.90;99.90;;;;;;4166177;28;20120;-60
2023/04/13 01:13:17;;;;;;;2.53;0.65;;;7.90;99.90;;;;;;4163683;28;20404;-61
2023/04/13 01:15:18;;;;;;;5.88;1.00;;;7.90;99.90;;;;;;4166869;28;20056;-61
2023/04/13 01:17:24;;;;;;;1.77;0.40;;;8.00;99.90;;;;;;4172238;28;20091;-60
2023/04/13 01:19:55;;;;;;;4.45;0.73;;;8.00;99.90;;;;;;4166534;28;20033;-61
2023/04/13 01:21:56;;;;;;;2.78;0.70;;;8.00;99.90;;;;;;4164751;28;20037;-61
2023/04/13 01:24:45;;;;;;;2.10;0.77;;;8.00;99.90;;;;;;4167429;28;20365;-60
2023/04/13 01:27:21;;;;;;;4.45;1.25;;;8.00;99.90;;;;;;4077016;28;20028;-61
2023/04/13 01:29:24;;;;;;;1.67;0.65;;;8.10;99.90;;;;;;4154144;28;20063;-61
2023/04/13 01:31:24;;;;;;;2.30;0.75;;;8.10;99.90;;;;;;4155599;28;20390;-61
2023/04/13 01:33:25;;;;;;;1.92;0.80;;;8.10;99.90;;;;;;4154637;28;20033;-61
2023/04/13 01:35:26;;;;;;;6.22;1.23;;;8.10;99.90;;;;;;4158313;28;20041;-60
2023/04/13 01:37:26;;;;;;;2.80;0.52;;;8.10;99.90;;;;;;4174201;28;20487;-61
2023/04/13 01:39:30;;;;;;;1.80;0.70;;;8.20;99.90;;;;;;4175062;28;20091;-61
2023/04/13 01:41:31;;;;;;;4.40;1.05;;;8.20;99.90;;;;;;4160128;28;20175;-61
2023/04/13 01:43:32;;;;;;;1.80;0.75;;;8.20;99.90;;;;;;4156257;28;20441;-60
2023/04/13 01:45:59;;;;;;;2.17;0.73;;;8.20;99.90;;;;;;4161665;28;20124;-61
2023/04/13 01:48:34;;;;;;;5.55;1.25;;;8.30;99.90;;;;;;4171515;28;20542;-61
2023/04/13 01:50:40;;;;;;;3.40;1.15;;;8.20;99.90;;;;;;4171291;28;20484;-60
2023/04/13 01:52:42;;;;;;;3.50;0.80;;;8.30;99.90;;;;;;4171632;28;20033;-61
2023/04/13 01:54:45;;;;;;;3.57;0.80;;;8.30;99.90;;;;;;4172354;28;20060;-60
2023/04/13 01:56:47;;;;;;;2.83;1.05;;;8.20;99.90;;;;;;4167296;28;20064;-61
2023/04/13 01:58:52;;;;;;;1.23;0.68;;;8.30;99.90;;;;;;4171849;28;20396;-61
2023/04/13 02:00:55;;;;;;;3.85;0.90;;;8.30;99.90;;;;;;4170716;28;20105;-65
2023/04/13 02:02:56;;;;;;;1.95;0.80;;;8.30;99.90;;;;;;4169242;28;20078;-61
2023/04/13 02:04:58;;;;;;;4.10;0.75;;;8.30;99.90;;;;;;4175565;28;20087;-61
2023/04/13 02:06:59;;;;;;;3.33;0.88;;;8.30;99.90;;;;;;4170817;28;20025;-61
2023/04/13 02:09:00;;;;;;;3.97;1.20;;;8.30;99.90;;;;;;4176706;28;20060;-61
2023/04/13 02:11:00;;;;;;;3.40;0.80;;;8.40;99.90;;;;;;4169697;28;20540;-61
2023/04/13 02:13:02;;;;;;;3.45;0.80;;;8.30;99.90;;;;;;4172549;28;20079;-61
2023/04/13 02:15:03;;;;;;;3.92;1.23;;;8.30;99.90;;;;;;4174107;28;20427;-61
2023/04/13 02:17:04;;;;;;;2.60;0.90;;;8.40;99.90;;;;;;4164242;28;20045;-60
2023/04/13 02:19:04;;;;;;;2.33;0.50;;;8.30;99.90;;;;;;4171322;28;20048;-61
2023/04/13 02:21:10;;;;;;;1.70;0.65;;;8.30;99.90;;;;;;4172042;28;20457;-61
2023/04/13 02:23:16;;;;;;;2.85;1.10;;;8.30;99.90;;;;;;4168262;28;20511;-61
2023/04/13 02:25:17;;;;;;;3.00;0.88;;;8.30;99.90;;;;;;4172408;28;20052;-62
2023/04/13 02:27:18;;;;;;;2.85;1.08;;;8.30;99.90;;;;;;4171293;28;20397;-62
2023/04/13 02:29:18;;;;;;;5.30;1.13;;;8.30;99.90;;;;;;4173897;28;20436;-61
2023/04/13 02:31:22;;;;;;;5.03;1.08;;;8.30;99.90;;;;;;4169120;28;20051;-61
2023/04/13 02:33:22;;;;;;;4.47;0.90;;;8.30;99.90;;;;;;4168591;28;20041;-61
2023/04/13 02:35:24;;;;;;;2.83;0.95;;;8.30;99.90;;;;;;4168266;28;20581;-64
2023/04/13 02:37:25;;;;;;;3.85;1.13;;;8.30;99.90;;;;;;4170056;28;20139;-61
2023/04/13 02:39:25;;;;;;;2.70;0.90;;;8.30;99.90;;;;;;4168337;28;20045;-61
2023/04/13 02:41:26;;;;;;;3.75;1.13;;;8.30;99.90;;;;;;4166952;28;20068;-61
2023/04/13 02:43:30;;;;;;;3.03;0.98;;;8.40;99.90;;;;;;4172769;28;20060;-61
2023/04/13 02:45:31;;;;;;;3.00;0.95;;;8.40;99.90;;;;;;4174513;28;20156;-61
2023/04/13 02:47:33;;;;;;;1.80;0.93;;;8.40;99.90;;;;;;4173869;28;20498;-61
2023/04/13 02:49:35;;;;;;;4.10;1.02;;;8.40;99.90;;;;;;4166454;28;20088;-61
2023/04/13 02:51:35;;;;;;;4.40;0.97;;;8.40;99.90;;;;;;4171664;28;20435;-61
2023/04/13 02:53:36;;;;;;;3.80;0.88;;;8.40;99.90;;;;;;4172999;28;20037;-60
2023/04/13 02:55:37;;;;;;;3.95;1.50;;;8.40;99.90;;;;;;4170061;28;20121;-61
2023/04/13 02:57:41;;;;;;;4.72;1.20;;;8.40;99.90;;;;;;4170246;28;20033;-61
2023/04/13 02:59:42;;;;;;;3.35;1.13;;;8.40;99.90;;;;;;4168196;28;20029;-61
2023/04/13 03:01:44;;;;;;;4.13;1.02;;;8.40;99.90;;;;;;4176106;28;20025;-61
2023/04/13 03:03:45;;;;;;;3.53;1.27;;;8.40;99.90;;;;;;4170402;28;20037;-61
2023/04/13 03:05:48;;;;;;;6.18;1.05;;;8.40;99.90;;;;;;4170756;28;20498;-61
2023/04/13 03:07:49;;;;;;;4.45;1.40;;;8.40;99.90;;;;;;4168649;28;20029;-61
2023/04/13 03:09:51;;;;;;;3.55;0.77;;;8.30;99.90;;;;;;4167945;28;20508;-61
2023/04/13 03:11:52;;;;;;;7.03;1.58;;;8.30;99.90;;;;;;4172759;28;20037;-60
2023/04/13 03:13:53;;;;;;;3.60;1.00;;;8.30;99.90;;;;;;4174191;28;20048;-61
2023/04/13 03:15:53;;;;;;;4.13;0.90;;;8.20;99.90;;;;;;4154918;28;20041;-64
2023/04/13 03:17:54;;;;;;;5.30;1.10;;;8.20;99.90;;;;;;4157708;28;20034;-61
2023/04/13 03:19:56;;;;;;;4.90;1.35;;;8.20;99.90;;;;;;4173253;28;20094;-61
2023/04/13 03:21:57;;;;;;;4.47;1.10;;;8.10;99.90;;;;;;4169528;28;20037;-61
2023/04/13 03:23:57;;;;;;;4.50;1.02;;;8.10;99.90;;;;;;4170811;28;20369;-61
2023/04/13 03:25:58;;;;;;;4.55;1.15;;;8.10;99.90;;;;;;4166713;28;20037;-61
2023/04/13 03:27:58;;;;;;;5.03;1.00;;;8.10;99.90;;;;;;4166384;28;20041;-61
2023/04/13 03:29:59;;;;;;;3.33;0.80;;;8.10;99.90;;;;;;4159008;28;20081;-60
2023/04/13 03:32:00;;;;;;;6.75;1.55;;;8.10;99.90;;;;;;4152392;28;20044;-60
2023/04/13 03:34:00;;;;;;;3.80;1.23;;;8.10;99.90;;;;;;4152453;28;20497;-60
2023/04/13 03:36:02;;;;;;;3.15;1.15;;;8.10;99.90;;;;;;4154668;28;20033;-60
2023/04/13 03:38:03;;;;;;;6.65;1.30;;;8.00;99.90;;;;;;4154179;28;20044;-61
2023/04/13 03:40:04;;;;;;;3.20;1.05;;;8.10;99.90;;;;;;4157963;28;20042;-62
2023/04/13 03:42:05;;;;;;;3.55;1.33;;;8.00;99.90;;;;;;4157818;28;20040;-60
2023/04/13 03:44:07;;;;;;;5.47;1.30;;;8.10;99.90;;;;;;4156805;28;20045;-60
2023/04/13 03:46:07;;;;;;;4.90;0.98;;;8.10;99.90;;;;;;4152583;28;20048;-60
2023/04/13 03:48:09;;;;;;;2.80;0.90;;;8.00;99.90;;;;;;4154619;28;20228;-60
2023/04/13 03:50:10;;;;;;;6.60;1.38;;;8.00;99.90;;;;;;4152432;28;20492;-61
2023/04/13 03:52:10;;;;;;;5.00;1.00;;;8.00;99.90;;;;;;4160498;28;20034;-60
2023/04/13 03:54:11;;;;;;;2.85;0.90;;;8.00;99.90;;;;;;4163578;28;20037;-60
2023/04/13 03:56:12;;;;;;;2.20;0.88;;;8.00;99.90;;;;;;4158127;28;20040;-60
2023/04/13 03:58:12;;;;;;;3.28;1.00;;;8.00;99.90;;;;;;4158087;28;20049;-60
2023/04/13 04:00:14;;;;;;;3.03;1.10;;;8.00;99.90;;;;;;4157412;28;20037;-61
2023/04/13 04:02:15;;;;;;;6.15;0.88;;;8.00;99.90;;;;;;4158969;28;20049;-60
2023/04/13 04:04:15;;;;;;;4.22;0.80;;;7.90;99.90;;;;;;4163897;28;20042;-60
2023/04/13 04:06:16;;;;;;;4.90;1.23;;;8.00;99.90;;;;;;4168140;28;20036;-60
2023/04/13 04:08:17;;;;;;;3.20;1.05;;;8.00;99.90;;;;;;4161226;28;20029;-60
2023/04/13 04:10:18;;;;;;;3.22;0.88;;;7.90;99.90;;;;;;4167970;28;20068;-60
2023/04/13 04:12:19;;;;;;;3.83;1.13;;;8.00;99.90;;;;;;4172765;28;20057;-61
2023/04/13 04:14:19;;;;;;;6.45;1.20;;;8.00;99.90;;;;;;4166007;28;20037;-61
2023/04/13 04:16:20;;;;;;;3.85;0.93;;;8.00;99.90;;;;;;4165754;28;20025;-60
2023/04/13 04:18:21;;;;;;;4.15;1.30;;;8.00;99.90;;;;;;4167144;28;20029;-61
2023/04/13 04:20:21;;;;;;;4.80;1.25;;;8.00;99.90;;;;;;4157225;28;20025;-60
2023/04/13 04:22:28;;;;;;;3.20;1.13;;;7.90;99.90;;;;;;4157750;28;20025;-61
2023/04/13 04:24:29;;;;;;;4.07;1.00;;;8.00;99.90;;;;;;4157205;28;20048;-61
2023/04/13 04:26:31;;;;;;;3.58;1.00;;;7.90;99.90;;;;;;4159864;28;20036;-61
2023/04/13 04:28:37;;;;;;;2.40;1.13;;;8.00;99.90;;;;;;4159883;28;20026;-60
2023/04/13 04:30:38;;;;;;;6.00;1.20;;;8.00;99.90;;;;;;4159733;28;20033;-61
2023/04/13 04:32:40;;;;;;;1.77;0.90;;;8.00;99.90;;;;;;4158285;28;20088;-60
2023/04/13 04:34:42;;;;;;;1.40;0.73;;;8.00;99.90;;;;;;4155540;28;20099;-60
2023/04/13 04:36:44;;;;;;;3.42;1.13;;;8.00;99.90;;;;;;4158846;28;20030;-61
2023/04/13 04:38:45;;;;;;;7.45;1.33;;;8.00;99.90;;;;;;4156490;28;20508;-60
2023/04/13 04:40:45;;;;;;;6.18;1.13;;;8.00;99.90;;;;;;4158264;28;20073;-60
2023/04/13 04:42:46;;;;;;;3.58;1.17;;;8.00;99.90;;;;;;4158706;28;20950;-60
2023/04/13 04:44:49;;;;;;;3.20;0.90;;;8.00;99.90;;;;;;4151018;28;20073;-61
2023/04/13 04:46:52;;;;;;;5.50;1.50;;;8.00;99.90;;;;;;4162395;28;20033;-61
2023/04/13 04:48:53;;;;;;;2.92;1.05;;;8.00;99.90;;;;;;4168709;28;20511;-60
2023/04/13 04:50:54;;;;;;;3.53;1.30;;;8.00;99.90;;;;;;4165543;28;20116;-60
2023/04/13 04:52:55;;;;;;;2.78;1.00;;;8.10;99.90;;;;;;4170205;28;20453;-65
2023/04/13 04:54:55;;;;;;;5.05;1.50;;;8.10;99.90;;;;;;4153383;28;20033;-62
2023/04/13 04:57:00;;;;;;;4.35;1.13;;;8.10;99.90;;;;;;4168747;28;20094;-61
2023/04/13 04:59:01;;;;;;;2.88;1.10;;;8.10;99.90;;;;;;4169756;28;20037;-61
2023/04/13 05:01:02;;;;;;;4.05;1.20;;;8.10;99.90;;;;;;4163810;28;20036;-61
2023/04/13 05:03:03;;;;;;;4.07;1.10;;;8.20;99.90;;;;;;4173502;28;20116;-61
2023/04/13 05:05:04;;;;;;;3.67;1.40;;;8.20;99.90;;;;;;4165062;28;20044;-64
2023/04/13 05:07:04;;;;;;;3.53;1.17;;;8.10;99.90;;;;;;4164790;28;20404;-60
2023/04/13 05:09:05;;;;;;;6.68;1.45;;;8.10;99.90;;;;;;4166985;28;20036;-61
2023/04/13 05:11:06;;;;;;;2.47;0.93;;;8.10;99.90;;;;;;4160749;28;20053;-61
2023/04/13 05:13:07;;;;;;;3.28;1.20;;;8.10;99.90;;;;;;4157428;28;20096;-61
2023/04/13 05:15:08;;;;;;;5.50;1.58;;;8.10;99.90;;;;;;4158038;28;20069;-60
2023/04/13 05:17:09;;;;;;;2.95;1.15;;;8.10;99.90;;;;;;4162577;28;20037;-61
2023/04/13 05:19:11;;;;;;;3.35;1.10;;;8.10;99.90;;;;;;4166196;28;20076;-61
2023/04/13 05:21:13;;;;;;;3.47;1.08;;;8.10;99.90;;;;;;4160083;28;20025;-61
2023/04/13 05:23:13;;;;;;;3.53;1.08;;;8.10;99.90;;;;;;4159636;28;20037;-61
2023/04/13 05:25:14;;;;;;;3.20;1.30;;;8.20;99.90;;;;;;4163818;28;20035;-61
2023/04/13 05:27:16;;;;;;;2.70;1.30;;;8.20;99.90;;;;;;4159327;28;20030;-61
2023/04/13 05:29:16;;;;;;;2.37;1.17;;;8.20;99.90;;;;;;4151603;28;20104;-60
2023/04/13 05:31:17;;;;;;;4.38;1.48;;;8.30;99.90;;;;;;4168189;28;20025;-61
2023/04/13 05:33:19;;;;;;;5.65;1.17;;;8.20;99.90;;;;;;4171908;28;21938;-61
2023/04/13 05:35:20;;;;;;;6.60;2.10;;;8.30;99.90;;;;;;4168567;28;20033;-60
2023/04/13 05:37:20;;;;;;;2.70;1.58;;;8.30;99.90;;;;;;4163896;28;20034;-60
2023/04/13 05:39:21;;;;;;;5.97;1.88;;;8.40;99.90;;;;;;4169546;28;20072;-64
2023/04/13 05:41:22;;;;;;;3.28;1.30;;;8.40;99.90;;;;;;4162580;28;20034;-61
2023/04/13 05:43:22;;;;;;;5.35;1.33;;;8.30;99.90;;;;;;4165985;28;20030;-61
2023/04/13 05:45:23;;;;;;;5.28;1.50;;;8.40;99.90;;;;;;4169284;28;20386;-61
2023/04/13 05:47:24;;;;;;;5.38;1.63;;;8.40;99.90;;;;;;4165089;28;20116;-61
2023/04/13 05:49:25;;;;;;;6.97;1.80;;;8.40;99.90;;;;;;4167895;28;20040;-61
2023/04/13 05:51:30;;;;;;;4.85;1.17;;;8.40;99.90;;;;;;4165174;28;20026;-61
2023/04/13 05:53:31;;;;;;;2.42;1.40;;;8.40;99.90;;;;;;4152516;28;20399;-61
2023/04/13 05:55:32;;;;;;;4.82;1.58;;;8.50;99.90;;;;;;4168112;28;20060;-61
2023/04/13 05:57:33;;;;;;;2.83;1.20;;;8.50;99.90;;;;;;4167215;28;20029;-61
2023/04/13 05:59:34;;;;;;;2.67;1.30;;;8.50;99.90;;;;;;4163241;28;20515;-60
2023/04/13 06:01:36;;;;;;;4.25;1.23;;;8.50;99.90;;;;;;4170696;28;20484;-61
2023/04/13 06:03:37;;;;;;;6.05;1.67;;;8.50;99.90;;;;;;4169976;28;20480;-60
2023/04/13 06:05:37;;;;;;;3.50;1.35;;;8.50;99.90;;;;;;4169494;28;20018;-61
2023/04/13 06:07:38;;;;;;;3.10;1.33;;;8.50;99.90;;;;;;4169251;28;20083;-61
2023/04/13 06:09:39;;;;;;;5.05;1.58;;;8.60;99.90;;;;;;4169719;28;20043;-61
2023/04/13 06:11:39;;;;;;;5.00;1.75;;;8.50;99.90;;;;;;4169223;28;20033;-61
2023/04/13 06:13:41;;;;;;;2.38;1.10;;;8.60;99.90;;;;;;4170415;28;20045;-61
2023/04/13 06:15:42;;;;;;;5.05;1.40;;;8.60;99.90;;;;;;4165706;28;20026;-61
2023/04/13 06:17:42;;;;;;;4.43;1.45;;;8.60;99.90;;;;;;4165806;28;20037;-61
2023/04/13 06:19:43;;;;;;;5.20;1.50;;;8.70;99.90;;;;;;4169134;28;20053;-61
2023/04/13 06:21:43;;;;;;;4.10;1.45;;;8.70;99.90;;;;;;4164882;28;20030;-60
2023/04/13 06:23:44;;;;;;;4.25;1.50;;;8.80;99.90;;;;;;4167569;28;20029;-60
2023/04/13 06:25:45;;;;;;;3.03;1.13;;;8.80;99.90;;;;;;4168399;28;20049;-61
2023/04/13 06:27:48;;;;;;;3.35;1.20;;;8.80;99.90;;;;;;4144722;28;20397;-61
2023/04/13 06:29:49;;;;;;;6.60;1.65;;;8.80;99.90;;;;;;4160192;28;20037;-60
2023/04/13 06:31:50;;;;;;;4.47;1.42;;;8.80;99.90;;;;;;4166629;28;20037;-62
2023/04/13 06:33:51;;;;;;;3.00;1.30;;;8.90;99.90;;;;;;4163593;28;20458;-61
2023/04/13 06:35:51;;;;;;;5.22;1.48;;;8.90;99.90;;;;;;4151271;28;20128;-60
2023/04/13 06:37:52;;;;;;;5.40;1.52;;;8.90;99.90;;;;;;4161183;28;20048;-64
2023/04/13 06:39:53;;;;;;;3.50;1.52;;;9.00;99.90;;;;;;4158177;28;20056;-62
2023/04/13 06:41:53;;;;;;;3.20;1.40;;;9.00;99.90;;;;;;4156440;28;20068;-61
2023/04/13 06:43:54;;;;;;;4.35;1.23;;;9.10;99.90;;;;;;4150809;28;20084;-62
2023/04/13 06:45:58;;;;;;;3.42;1.27;;;9.30;99.90;;;;;;4143514;28;20030;-61
2023/04/13 06:47:59;;;;;;;5.05;1.63;;;9.40;99.90;;;;;;4168584;28;20400;-61
2023/04/13 06:50:05;;;;;;;1.63;0.90;;;9.50;99.90;;;;;;4168146;28;20037;-61
2023/04/13 06:52:06;;;;;;;6.15;1.60;;;9.60;99.90;;;;;;4168401;28;20048;-61
2023/04/13 06:54:06;;;;;;;2.67;1.20;;;9.60;99.90;;;;;;4167864;28;20038;-61
2023/04/13 06:56:07;;;;;;;4.55;1.25;;;9.70;99.90;;;;;;4165074;28;20374;-61
2023/04/13 06:58:08;;;;;;;1.73;0.93;;;9.60;99.90;;;;;;4169915;28;20400;-61
2023/04/13 07:00:09;;;;;;;3.28;1.00;;;9.60;99.90;;;;;;4168283;28;20033;-62
2023/04/13 07:02:10;;;;;;;3.83;1.00;;;9.60;99.90;;;;;;4168971;28;20373;-61
2023/04/13 07:04:11;;;;;;;3.08;1.10;;;9.50;99.90;;;;;;4169717;28;20049;-61
2023/04/13 07:06:11;;;;;;;2.60;0.80;;;9.50;99.90;;;;;;4169623;28;20116;-61
2023/04/13 07:08:12;;;;;;;3.35;1.30;;;9.50;99.90;;;;;;4163181;28;20038;-61
2023/04/13 07:10:12;;;;;;;2.60;1.02;;;9.50;99.90;;;;;;4152963;28;20033;-61
2023/04/13 07:12:13;;;;;;;2.30;0.80;;;9.40;99.90;;;;;;4155984;28;20048;-61
2023/04/13 07:14:14;;;;;;;3.20;0.93;;;9.30;99.90;;;;;;4153829;28;20461;-61
2023/04/13 07:16:15;;;;;;;2.80;0.73;;;9.30;99.90;;;;;;4152909;28;20030;-61
2023/04/13 07:18:15;;;;;;;3.15;0.90;;;9.30;99.90;;;;;;4154291;28;20053;-61
2023/04/13 07:20:16;;;;;;;2.92;1.20;;;9.30;99.90;;;;;;4151618;28;20037;-61
2023/04/13 07:22:17;;;;;;;2.42;0.68;;;9.30;99.90;;;;;;4152009;28;20030;-61
2023/04/13 07:24:17;;;;;;;3.70;1.10;;;9.30;99.90;;;;;;4163447;28;20048;-61
2023/04/13 07:26:18;;;;;;;5.00;1.27;;;9.30;99.90;;;;;;4168709;28;20492;-61
2023/04/13 07:28:18;;;;;;;4.00;1.38;;;9.30;99.90;;;;;;4167198;28;20430;-61
2023/04/13 07:30:19;;;;;;;4.60;1.25;;;9.30;99.90;;;;;;4171845;28;20033;-61
2023/04/13 07:32:20;;;;;;;1.90;0.70;;;9.30;99.90;;;;;;4168814;28;20030;-60
2023/04/13 07:34:21;;;;;;;4.38;1.10;;;9.30;99.90;;;;;;4168409;28;20044;-61
2023/04/13 07:36:22;;;;;;;2.25;0.70;;;9.30;99.90;;;;;;4172170;28;20033;-61
2023/04/13 07:38:23;;;;;;;3.33;1.30;;;9.30;99.90;;;;;;4168431;28;20112;-61
2023/04/13 07:40:23;;;;;;;5.72;1.15;;;9.30;99.90;;;;;;4151543;28;20098;-62
2023/04/13 07:42:24;;;;;;;4.38;0.93;;;9.30;99.90;;;;;;4146206;28;20068;-63
2023/04/13 07:44:24;;;;;;;2.95;1.30;;;9.30;99.90;;;;;;4169423;28;20029;-63
2023/04/13 07:46:26;;;;;;;2.08;0.90;;;9.20;99.90;;;;;;4165041;28;20029;-61
2023/04/13 07:48:26;;;;;;;3.25;1.13;;;9.30;99.90;;;;;;4152255;28;20037;-62
2023/04/13 07:50:27;;;;;;;3.05;1.15;;;9.30;99.90;;;;;;4156458;28;20038;-63
2023/04/13 07:52:28;;;;;;;4.13;1.30;;;9.30;99.90;;;;;;4151793;28;20512;-62
2023/04/13 07:54:28;;;;;;;5.80;1.10;;;9.40;99.90;;;;;;4164655;28;20037;-63
2023/04/13 07:56:32;;;;;;;5.30;1.67;;;9.40;99.90;;;;;;4167958;28;20026;-63
2023/04/13 07:58:32;;;;;;;8.25;1.80;;;9.40;99.90;;;;;;4166261;28;20503;-63
2023/04/13 08:00:33;;;;;;;7.13;1.45;;;9.40;99.90;;;;;;4165483;28;20033;-62
2023/04/13 08:02:33;;;;;;;4.78;1.38;;;9.40;99.90;;;;;;4167545;28;20045;-63
2023/04/13 08:04:34;;;;;;;4.85;1.17;;;9.50;99.90;;;;;;4165391;28;20033;-61
2023/04/13 08:06:35;;;;;;;6.18;2.00;;;9.50;99.90;;;;;;4169660;28;20040;-62
2023/04/13 08:08:36;;;;;;;3.33;1.20;;;9.50;99.90;;;;;;4173464;28;20021;-63
2023/04/13 08:10:37;;;;;;;3.80;1.38;;;9.50;99.90;;;;;;4178803;28;20498;-63
2023/04/13 08:12:37;;;;;;;6.40;1.63;;;9.60;99.90;;;;;;4179496;28;20033;-63
2023/04/13 08:14:38;;;;;;;8.43;1.30;;;9.60;99.90;;;;;;4179605;28;20040;-63
2023/04/13 08:16:38;;;;;;;4.80;1.70;;;9.60;99.90;;;;;;4171858;28;20036;-63
2023/04/13 08:18:39;;;;;;;6.75;1.70;;;9.60;99.90;;;;;;4166931;28;20025;-63
2023/04/13 08:20:40;;;;;;;4.20;1.50;;;9.60;99.90;;;;;;4171149;28;20037;-62
2023/04/13 08:22:40;;;;;;;6.45;1.85;;;9.60;99.90;;;;;;4164016;28;20152;-63
2023/04/13 08:24:41;;;;;;;5.35;1.40;;;9.60;99.90;;;;;;4166661;28;20038;-63
2023/04/13 08:26:43;;;;;;;5.78;2.10;;;9.60;99.90;;;;;;4163507;28;20056;-62
2023/04/13 08:28:46;;;;;;;7.78;1.80;;;9.60;99.90;;;;;;4167279;28;20032;-63
2023/04/13 08:30:46;;;;;;;8.60;1.73;;;9.60;99.90;;;;;;4167397;28;20385;-62
2023/04/13 08:32:47;;;;;;;4.05;1.20;;;9.60;99.90;;;;;;4170065;28;20037;-62
2023/04/13 08:34:48;;;;;;;7.03;1.95;;;9.60;99.90;;;;;;4166975;28;20052;-63
2023/04/13 08:36:49;;;;;;;5.93;1.52;;;9.60;99.90;;;;;;4165589;28;20103;-62
2023/04/13 08:38:50;;;;;;;6.82;1.83;;;9.60;99.90;;;;;;4163538;28;20450;-62
2023/04/13 08:40:51;;;;;;;6.32;1.77;;;9.70;99.90;;;;;;4168133;28;20033;-62
2023/04/13 08:42:53;;;;;;;5.68;1.80;;;9.70;99.90;;;;;;4165173;28;20124;-62
2023/04/13 08:44:58;;;;;;;4.68;1.67;;;9.70;99.90;;;;;;4167693;28;20052;-62
2023/04/13 08:46:59;;;;;;;4.72;1.38;;;9.80;99.90;;;;;;4163798;28;20101;-62
2023/04/13 08:49:01;;;;;;;7.88;2.03;;;9.80;99.90;;;;;;4167227;28;20033;-62
2023/04/13 08:51:03;;;;;;;8.25;2.15;;;9.90;99.90;;;;;;4168582;28;20034;-63
2023/04/13 08:53:04;;;;;;;3.80;1.50;;;9.90;99.90;;;;;;4166188;28;20037;-63
2023/04/13 08:55:05;;;;;;;6.55;1.70;;;9.90;99.90;;;;;;4164014;28;20033;-66
2023/04/13 08:57:06;;;;;;;6.10;1.65;;;10.00;99.90;;;;;;4163655;28;20042;-63
2023/04/13 08:59:08;;;;;;;8.35;1.88;;;10.10;99.90;;;;;;4163169;28;20118;-63
2023/04/13 09:01:14;;;;;;;8.80;2.38;;;10.10;99.90;;;;;;4169214;28;20540;-63
2023/04/13 09:03:22;;;;;;;5.40;1.90;;;10.20;99.90;;;;;;4166037;28;20057;-63
2023/04/13 09:05:23;;;;;;;6.03;1.73;;;10.30;99.90;;;;;;4166275;28;20040;-63
2023/04/13 09:07:30;;;;;;;6.25;1.95;;;10.30;99.90;;;;;;4164119;28;20036;-63
2023/04/13 09:09:32;;;;;;;9.10;2.28;;;10.40;99.90;;;;;;4163513;28;20030;-63
2023/04/13 09:11:32;;;;;;;8.35;1.70;;;10.50;99.90;;;;;;4169961;28;20064;-62
2023/04/13 09:13:33;;;;;;;7.68;2.20;;;10.60;99.90;;;;;;4161398;28;20033;-61
2023/04/13 09:15:33;;;;;;;6.20;1.50;;;10.60;99.90;;;;;;4172442;28;20389;-62
2023/04/13 09:17:34;;;;;;;10.63;2.20;;;10.70;99.90;;;;;;4178731;28;20033;-63
2023/04/13 09:19:36;;;;;;;9.82;1.60;;;10.80;99.90;;;;;;4171095;28;20103;-63
2023/04/13 09:21:37;;;;;;;9.40;2.33;;;10.70;99.90;;;;;;4165032;28;20056;-63
2023/04/13 09:23:38;;;;;;;7.25;1.95;;;10.70;99.90;;;;;;4171590;28;20476;-63
2023/04/13 09:25:39;;;;;;;3.75;1.40;;;10.70;99.90;;;;;;4165723;28;20087;-63
2023/04/13 09:27:40;;;;;;;7.28;1.88;;;10.80;99.90;;;;;;4165276;28;20103;-63
2023/04/13 09:29:51;;;;;;;7.00;1.90;;;10.70;99.90;;;;;;4167026;28;20037;-63
2023/04/13 09:31:52;;;;;;;7.95;1.85;;;10.70;99.90;;;;;;4165511;28;20029;-63
2023/04/13 09:33:52;;;;;;;7.15;2.05;;;10.70;99.90;;;;;;4168671;28;20107;-63
2023/04/13 09:35:53;;;;;;;5.03;1.85;;;10.70;99.90;;;;;;4166568;28;20040;-63
2023/04/13 09:37:54;;;;;;;5.30;2.08;;;10.70;99.90;;;;;;4162724;28;20041;-62
2023/04/13 09:40:07;;;;;;;11.68;2.00;;;10.70;99.90;;;;;;4167139;28;20480;-63
2023/04/13 09:42:11;;;;;;;6.40;1.83;;;10.70;99.90;;;;;;4166270;28;20093;-63
2023/04/13 09:44:19;;;;;;;6.90;1.83;;;10.70;99.90;;;;;;4160748;28;20436;-63
2023/04/13 09:46:19;;;;;;;5.43;1.45;;;10.70;99.90;;;;;;4165789;28;20950;-63
2023/04/13 09:48:21;;;;;;;2.35;1.23;;;10.70;99.90;;;;;;4164023;28;20087;-63
2023/04/13 09:50:27;;;;;;;9.55;1.80;;;10.80;99.90;;;;;;4170263;28;20036;-63
2023/04/13 09:52:27;;;;;;;6.78;1.60;;;10.80;99.90;;;;;;4167009;28;20041;-63
2023/04/13 09:54:28;;;;;;;6.97;1.80;;;10.80;99.90;;;;;;4165003;28;20040;-63
2023/04/13 09:56:30;;;;;;;9.98;2.40;;;10.70;99.90;;;;;;4160949;28;20021;-63
2023/04/13 09:58:31;;;;;;;7.88;2.10;;;10.70;99.90;;;;;;4167554;28;20037;-64
2023/04/13 10:00:32;;;;;;;8.90;2.13;;;10.70;99.90;;;;;;4167741;28;20111;-63
2023/04/13 10:02:32;;;;;;;10.93;2.35;;;10.80;99.90;;;;;;4169353;28;20036;-63
2023/04/13 10:04:34;;;;;;;6.45;2.13;;;10.80;99.90;;;;;;4167260;28;20030;-63
2023/04/13 10:06:39;;;;;;;7.32;1.60;;;10.90;99.90;;;;;;4165957;28;20030;-63
2023/04/13 10:08:41;;;;;;;8.07;2.22;;;10.90;99.90;;;;;;4172606;28;20167;-63
2023/04/13 10:10:42;;;;;;;5.45;1.75;;;11.00;99.90;;;;;;4172420;28;20048;-63
2023/04/13 10:12:48;;;;;;;9.15;2.05;;;11.00;99.90;;;;;;4169096;28;20033;-63
2023/04/13 10:14:57;;;;;;;10.75;2.00;;;11.00;99.90;;;;;;4166424;28;20037;-63
2023/04/13 10:17:19;;;;;;;12.15;2.80;;;11.10;99.90;;;;;;4172409;28;20133;-63
2023/04/13 10:19:23;;;;;;;8.32;2.10;;;11.10;99.90;;;;;;4166637;28;20032;-63
2023/04/13 10:21:27;;;;;;;7.82;2.22;;;11.20;99.90;;;;;;4164545;28;20048;-63
2023/04/13 10:23:30;;;;;;;13.40;2.63;;;11.30;99.90;;;;;;4169710;28;20030;-63
2023/04/13 10:25:31;;;;;;;8.90;2.25;;;11.30;99.90;;;;;;4163273;28;20389;-63
2023/04/13 10:27:34;;;;;;;7.65;2.10;;;11.30;99.90;;;;;;4168219;28;20029;-63
2023/04/13 10:29:35;;;;;;;7.18;2.40;;;11.30;99.90;;;;;;4167818;28;20473;-64
2023/04/13 10:31:45;;;;;;;5.93;1.67;;;11.30;99.90;;;;;;4166462;28;20121;-64
2023/04/13 10:33:54;;;;;;;10.52;2.15;;;11.40;99.90;;;;;;4170594;28;20091;-64
2023/04/13 10:35:56;;;;;;;8.85;2.17;;;11.30;99.90;;;;;;4167764;28;20034;-63
2023/04/13 10:37:57;;;;;;;6.72;1.70;;;11.30;99.90;;;;;;4165697;28;20044;-63
2023/04/13 10:40:06;;;;;;;9.00;2.40;;;11.40;99.90;;;;;;4169160;28;20048;-63
2023/04/13 10:42:09;;;;;;;6.50;1.88;;;11.40;99.90;;;;;;4168927;28;20532;-63
2023/04/13 10:44:09;;;;;;;5.88;1.95;;;11.40;99.90;;;;;;4173674;28;20037;-63